Accueil
METAR-TAF:

METAR-TAF

Aéroports :

Chautauqua County/Dunkirk Airport

Dunkirk, New York, États-Unis

latitude: 42-29-35N, longitude: 079-16-33W, altitude: 211 m

Observation

Le bulletin a été fait il y a 57 minutes, à 19:53 UTC
Vent 15 kt de ouest avec des rafales jusqu'à 25 kt
Température 22°C
Humidité 88%
Pression 1005 hPa
Visibilité: 9.7 km
Nuages fragmentés à une hauteur de 1300 ft
Ciel couvert à une hauteur de 1900 ft
pluie faible, brume

METAR: KDKK 111953Z AUTO 27015G25KT 6SM -RA BR BKN013 OVC019 22/20 A2967 RMK AO2 PK WND 28027/1911 SLP042 P0004 T02220200

Heure: 16:50 (20:50 UTC)


TAF: absent

Observations et prévisions météorologiques de plus de 4000 aéroports (messages METAR et TAF).

Les stations disponibles sont représentées par des disques jaunes et rouges sur la carte.

Passer la souris dessus pour voir le nom de la station.

Cliquer dessus pour voir les observations et prévisions météorologiques.

Pour changer de carte: cliquez sur les boutons verts avec une croix noire pour zoomer, sur le bouton vert avec un tiret pour effectuer un zoom arrière, ou sur les flèches vertes pour les cartes adjacentes.


METAR-TAF: